createdAt,value
2023-10-10T00:02:06.165Z,98808.81
2023-10-10T00:07:15.425Z,98819.06
2023-10-10T00:12:27.458Z,98821.38
2023-10-10T00:17:36.140Z,98809.09
2023-10-10T00:22:38.453Z,98796.50
2023-10-10T00:27:45.155Z,98800.91
2023-10-10T00:32:47.599Z,98780.44
2023-10-10T00:37:49.768Z,98778.66
2023-10-10T00:42:51.505Z,98771.00
2023-10-10T00:47:54.695Z,98772.16
2023-10-10T00:53:02.124Z,98768.47
2023-10-10T00:58:05.566Z,98767.16
2023-10-10T01:03:21.601Z,98789.69
2023-10-10T01:08:28.290Z,98784.75
2023-10-10T01:13:32.009Z,98776.84
2023-10-10T01:18:53.072Z,98769.25
2023-10-10T01:23:59.360Z,98779.97
2023-10-10T01:29:14.046Z,98765.81
2023-10-10T01:34:32.149Z,98755.00
2023-10-10T01:39:50.778Z,98767.19
2023-10-10T01:44:53.379Z,98764.72
2023-10-10T01:49:59.778Z,98770.66
2023-10-10T01:55:01.946Z,98772.31
2023-10-10T02:00:20.895Z,98783.13
2023-10-10T02:05:46.639Z,98797.63
2023-10-10T02:10:51.695Z,98800.41
2023-10-10T02:15:54.579Z,98798.63
2023-10-10T02:21:06.933Z,98784.81
2023-10-10T02:26:29.000Z,98788.50
2023-10-10T02:31:33.634Z,98805.41
2023-10-10T02:36:36.521Z,98813.31
2023-10-10T02:41:48.992Z,98818.53
2023-10-10T02:46:54.934Z,98821.03
2023-10-10T02:51:57.990Z,98809.44
2023-10-10T02:57:23.373Z,98817.22
2023-10-10T03:02:30.019Z,98804.38
2023-10-10T03:07:31.986Z,98820.91
2023-10-10T03:12:38.381Z,98813.66
2023-10-10T03:18:03.553Z,98821.38
2023-10-10T03:23:15.733Z,98823.94
2023-10-10T03:28:21.702Z,98816.78
2023-10-10T03:33:38.571Z,98808.56
2023-10-10T03:38:44.250Z,98811.63
2023-10-10T03:44:04.318Z,98816.44
2023-10-10T03:49:24.604Z,98816.13
2023-10-10T03:54:45.168Z,98816.59
2023-10-10T04:00:05.437Z,98826.09
2023-10-10T04:05:28.015Z,98827.19
2023-10-10T04:10:48.912Z,98805.19
2023-10-10T04:16:09.201Z,98797.50
2023-10-10T04:21:30.305Z,98800.28
2023-10-10T04:26:50.612Z,98805.22
2023-10-10T04:32:11.030Z,98811.63
2023-10-10T04:37:31.024Z,98808.94
2023-10-10T04:42:51.448Z,98817.28
2023-10-10T04:48:11.800Z,98824.47
2023-10-10T04:53:32.456Z,98818.78
2023-10-10T04:58:52.879Z,98818.44
2023-10-10T05:04:13.336Z,98820.81
2023-10-10T05:09:33.232Z,98816.25
2023-10-10T05:14:53.500Z,98819.56
2023-10-10T05:20:13.694Z,98822.56
2023-10-10T05:25:15.533Z,98813.66
2023-10-10T05:30:26.512Z,98832.06
2023-10-10T05:35:36.393Z,98833.84
2023-10-10T05:40:39.875Z,98840.66
2023-10-10T05:45:42.082Z,98842.44
2023-10-10T05:50:44.377Z,98839.00
2023-10-10T05:55:52.655Z,98850.84
2023-10-10T06:00:56.106Z,98856.75
2023-10-10T06:05:58.323Z,98865.06
2023-10-10T06:11:01.270Z,98874.00
2023-10-10T06:16:14.119Z,98861.09
2023-10-10T06:21:16.477Z,98871.72
2023-10-10T06:26:23.044Z,98886.03
2023-10-10T06:31:35.586Z,98903.47
2023-10-10T06:36:39.206Z,98896.78
2023-10-10T06:41:42.475Z,98908.78
2023-10-10T06:46:50.674Z,98912.31
2023-10-10T06:51:56.774Z,98920.34
2023-10-10T06:57:01.690Z,98905.22
2023-10-10T07:02:22.195Z,98913.56
2023-10-10T07:07:27.724Z,98926.47
2023-10-10T07:12:30.199Z,98932.66
2023-10-10T07:17:31.958Z,98942.06
2023-10-10T07:22:35.687Z,98942.09
2023-10-10T07:27:41.144Z,98925.31
2023-10-10T07:32:53.051Z,98931.00
2023-10-10T07:38:00.398Z,98938.41
2023-10-10T07:43:04.700Z,98954.03
2023-10-10T07:48:06.979Z,98960.06
2023-10-10T07:53:14.027Z,98959.63
2023-10-10T07:58:15.958Z,98962.34
2023-10-10T08:03:23.431Z,98957.31
2023-10-10T08:08:27.429Z,98957.75
2023-10-10T08:13:30.105Z,98961.03
2023-10-10T08:18:41.990Z,98958.97
2023-10-10T08:23:46.525Z,98959.81
2023-10-10T08:28:51.896Z,98955.88
2023-10-10T08:33:53.649Z,98965.22
2023-10-10T08:38:57.578Z,98959.63
2023-10-10T08:43:59.551Z,98972.41
2023-10-10T08:49:06.030Z,98957.78
2023-10-10T08:54:13.470Z,98959.97
2023-10-10T08:59:19.283Z,98945.47
2023-10-10T09:04:21.808Z,98947.22
2023-10-10T09:09:41.171Z,98944.03
2023-10-10T09:14:51.722Z,98950.94
2023-10-10T09:19:53.771Z,98960.03
2023-10-10T09:24:56.966Z,98958.50
2023-10-10T09:29:59.256Z,98959.94
2023-10-10T09:35:01.019Z,98951.84
2023-10-10T09:40:17.042Z,98950.59
2023-10-10T09:45:46.956Z,98950.84
2023-10-10T09:51:08.774Z,98957.97
2023-10-10T09:56:11.147Z,98958.19
2023-10-10T10:01:24.482Z,98954.41
2023-10-10T10:07:25.143Z,98952.38
2023-10-10T10:12:48.486Z,98956.63
2023-10-10T10:18:13.097Z,98946.09
2023-10-10T10:23:29.966Z,98944.53
2023-10-10T10:28:38.407Z,98934.34
2023-10-10T10:34:00.310Z,98926.59
2023-10-10T10:39:26.614Z,98909.88
2023-10-10T10:44:29.018Z,98917.53
2023-10-10T10:49:39.462Z,98926.38
2023-10-10T10:54:44.747Z,98917.41
2023-10-10T10:59:56.619Z,98921.41
2023-10-10T11:04:59.849Z,98909.56
2023-10-10T11:10:08.425Z,98916.06
2023-10-10T11:15:13.586Z,98910.09
2023-10-10T11:20:30.435Z,98901.22
2023-10-10T11:25:42.826Z,98900.00
2023-10-10T11:30:47.109Z,98888.19
2023-10-10T11:36:02.669Z,98895.06
2023-10-10T11:41:10.426Z,98890.28
2023-10-10T11:46:13.812Z,98921.78
2023-10-10T11:51:15.987Z,98924.41
2023-10-10T11:56:18.694Z,98936.75
2023-10-10T12:01:40.444Z,98946.13
2023-10-10T12:06:43.152Z,98957.81
2023-10-10T12:11:44.894Z,98961.13
2023-10-10T12:16:51.609Z,98957.75
2023-10-10T12:21:53.421Z,98942.03
2023-10-10T12:26:55.601Z,98936.28
2023-10-10T12:31:57.918Z,98923.19
2023-10-10T12:37:02.864Z,98910.13
2023-10-10T12:42:04.963Z,98925.72
2023-10-10T12:47:09.912Z,98929.16
2023-10-10T12:52:18.635Z,98928.00
2023-10-10T12:57:24.468Z,98921.75
2023-10-10T13:02:27.703Z,98922.22
2023-10-10T13:07:36.038Z,98928.41
2023-10-10T13:12:38.573Z,98912.44
2023-10-10T13:17:51.747Z,98916.97
2023-10-10T13:22:53.643Z,98906.09
2023-10-10T13:27:55.358Z,98905.81
2023-10-10T13:32:57.232Z,98915.19
2023-10-10T13:37:59.020Z,98905.34
2023-10-10T13:43:00.998Z,98915.84
2023-10-10T13:48:04.663Z,98921.22
2023-10-10T13:53:06.683Z,98914.56
2023-10-10T13:58:11.456Z,98898.53
2023-10-10T14:03:16.117Z,98896.13
2023-10-10T14:08:19.322Z,98901.56
2023-10-10T14:13:22.238Z,98898.69
2023-10-10T14:18:28.513Z,98902.69
2023-10-10T14:23:31.459Z,98895.84
2023-10-10T14:28:35.162Z,98895.38
2023-10-10T14:33:40.559Z,98901.13
2023-10-10T14:38:46.386Z,98893.09
2023-10-10T14:43:50.476Z,98899.41
2023-10-10T14:49:02.372Z,98897.72
2023-10-10T14:54:14.256Z,98906.25
2023-10-10T14:59:32.935Z,98895.72
2023-10-10T15:04:36.805Z,98902.22
2023-10-10T15:09:38.629Z,98900.06
2023-10-10T15:14:40.470Z,98899.69
2023-10-10T15:19:43.205Z,98908.50
2023-10-10T15:24:51.328Z,98910.66
2023-10-10T15:29:53.217Z,98917.53
2023-10-10T15:34:56.517Z,98918.00
2023-10-10T15:39:58.966Z,98912.94
2023-10-10T15:45:00.743Z,98923.50
2023-10-10T15:50:02.507Z,98925.75
2023-10-10T15:55:07.424Z,98936.34
2023-10-10T16:00:15.409Z,98949.38
2023-10-10T16:05:17.656Z,98948.69
2023-10-10T16:10:19.482Z,98954.38
2023-10-10T16:15:30.335Z,98954.22
2023-10-10T16:20:37.116Z,98964.88
2023-10-10T16:25:39.717Z,98970.22
2023-10-10T16:30:43.001Z,98966.25
2023-10-10T16:35:47.704Z,98979.34
2023-10-10T16:40:51.559Z,98983.94
2023-10-10T16:45:53.454Z,98984.53
2023-10-10T16:50:55.397Z,98997.22
2023-10-10T16:56:07.846Z,98996.66
2023-10-10T17:01:14.124Z,99007.13
2023-10-10T17:06:24.407Z,99005.44
2023-10-10T17:11:28.083Z,99010.41
2023-10-10T17:16:30.679Z,99009.56
2023-10-10T17:21:35.657Z,99017.84
2023-10-10T17:26:45.117Z,99011.94
2023-10-10T17:31:47.517Z,99017.75
2023-10-10T17:36:58.852Z,99020.94
2023-10-10T17:42:01.159Z,99012.31
2023-10-10T17:47:04.394Z,99023.63
2023-10-10T17:52:06.572Z,99021.00
2023-10-10T17:57:11.018Z,99012.59
2023-10-10T18:02:12.733Z,99018.44
2023-10-10T18:07:15.313Z,99024.84
2023-10-10T18:12:17.960Z,99039.00
2023-10-10T18:17:23.150Z,99040.69
2023-10-10T18:22:26.604Z,99054.06
2023-10-10T18:27:28.332Z,99059.72
2023-10-10T18:32:30.229Z,99062.13
2023-10-10T18:37:32.202Z,99068.06
2023-10-10T18:42:33.923Z,99074.06
2023-10-10T18:47:36.375Z,99074.75
2023-10-10T18:52:38.270Z,99082.03
2023-10-10T18:57:39.978Z,99077.47
2023-10-10T19:02:45.863Z,99080.16
2023-10-10T19:07:47.676Z,99085.44
2023-10-10T19:12:52.541Z,99079.72
2023-10-10T19:17:59.946Z,99087.03
2023-10-10T19:23:10.227Z,99086.38
2023-10-10T19:28:12.109Z,99094.75
2023-10-10T19:33:16.470Z,99103.38
2023-10-10T19:38:20.759Z,99107.28
2023-10-10T19:43:26.564Z,99107.28
2023-10-10T19:48:31.424Z,99115.00
2023-10-10T19:53:34.195Z,99092.53
2023-10-10T19:58:36.014Z,99102.31
2023-10-10T20:03:40.554Z,99103.28
2023-10-10T20:08:42.740Z,99104.72
2023-10-10T20:13:46.629Z,99107.16
2023-10-10T20:18:49.013Z,99105.41
2023-10-10T20:23:51.164Z,99114.13
2023-10-10T20:28:54.065Z,99112.16
2023-10-10T20:33:55.904Z,99111.94
2023-10-10T20:38:57.998Z,99122.50
2023-10-10T20:44:00.670Z,99116.03
2023-10-10T20:49:02.510Z,99114.44
2023-10-10T20:54:05.273Z,99119.84
2023-10-10T20:59:08.462Z,99118.28
2023-10-10T21:04:10.180Z,99112.50
2023-10-10T21:09:12.355Z,99114.72
2023-10-10T21:14:14.702Z,99113.97
2023-10-10T21:19:16.743Z,99104.56
2023-10-10T21:24:18.828Z,99114.66
2023-10-10T21:29:21.036Z,99115.53
2023-10-10T21:34:24.709Z,99100.81
2023-10-10T21:39:26.600Z,99107.13
2023-10-10T21:44:28.888Z,99112.41
2023-10-10T21:49:30.907Z,99113.78
2023-10-10T21:54:33.960Z,99109.22
2023-10-10T21:59:35.881Z,99116.88
2023-10-10T22:04:37.894Z,99119.03
2023-10-10T22:09:39.807Z,99117.75
2023-10-10T22:14:42.604Z,99115.38
2023-10-10T22:19:44.307Z,99099.97
2023-10-10T22:24:46.003Z,99097.31
2023-10-10T22:29:47.710Z,99091.66
2023-10-10T22:34:49.475Z,99088.44
2023-10-10T22:39:51.732Z,99083.38
2023-10-10T22:44:54.982Z,99086.41
2023-10-10T22:49:58.042Z,99076.53
2023-10-10T22:54:59.831Z,99084.06
2023-10-10T23:00:07.241Z,99085.22
2023-10-10T23:05:10.031Z,99082.53
2023-10-10T23:10:13.909Z,99082.38
2023-10-10T23:15:17.381Z,99080.47
2023-10-10T23:20:22.218Z,99078.97
2023-10-10T23:25:27.401Z,99088.91
2023-10-10T23:30:29.618Z,99090.13
2023-10-10T23:35:32.686Z,99085.06
2023-10-10T23:40:42.848Z,99088.94
2023-10-10T23:45:45.187Z,99081.09
2023-10-10T23:50:47.541Z,99076.47
2023-10-10T23:55:49.659Z,99079.88
